createdAt,value
2018-05-26T00:00:34.899Z,99.90
2018-05-26T00:03:01.136Z,99.90
2018-05-26T00:05:27.444Z,99.90
2018-05-26T00:07:53.794Z,99.90
2018-05-26T00:10:21.540Z,99.90
2018-05-26T00:12:47.812Z,99.90
2018-05-26T00:15:14.842Z,99.90
2018-05-26T00:17:41.838Z,99.90
2018-05-26T00:20:08.105Z,99.90
2018-05-26T00:22:34.450Z,99.90
2018-05-26T00:25:01.465Z,99.90
2018-05-26T00:27:27.773Z,99.90
2018-05-26T00:29:54.081Z,99.90
2018-05-26T00:32:20.338Z,99.90
2018-05-26T00:34:46.658Z,99.90
2018-05-26T00:37:12.977Z,99.90
2018-05-26T00:39:39.262Z,99.90
2018-05-26T00:42:05.532Z,99.90
2018-05-26T00:44:31.813Z,99.90
2018-05-26T00:46:58.085Z,99.90
2018-05-26T00:49:24.345Z,99.90
2018-05-26T00:51:50.656Z,99.90
2018-05-26T00:54:16.953Z,99.90
2018-05-26T00:56:43.997Z,99.90
2018-05-26T00:59:11.032Z,99.90
2018-05-26T01:01:37.295Z,99.90
2018-05-26T01:04:03.940Z,99.90
2018-05-26T01:06:31.050Z,99.90
2018-05-26T01:08:57.550Z,99.90
2018-05-26T01:11:23.803Z,99.90
2018-05-26T01:13:50.109Z,99.90
2018-05-26T01:16:16.366Z,99.90
2018-05-26T01:18:42.654Z,99.90
2018-05-26T01:21:08.941Z,99.90
2018-05-26T01:23:35.448Z,99.90
2018-05-26T01:26:01.759Z,99.90
2018-05-26T01:28:28.065Z,99.90
2018-05-26T01:30:55.065Z,99.90
2018-05-26T01:33:21.358Z,99.90
2018-05-26T01:35:47.716Z,99.90
2018-05-26T01:38:14.012Z,99.90
2018-05-26T01:40:40.286Z,99.90
2018-05-26T01:43:06.605Z,99.90
2018-05-26T01:45:32.905Z,99.90
2018-05-26T01:47:59.177Z,99.90
2018-05-26T01:50:25.517Z,99.90
2018-05-26T01:52:51.773Z,99.90
2018-05-26T01:55:18.812Z,99.90
2018-05-26T01:57:46.023Z,99.90
2018-05-26T02:00:12.277Z,99.90
2018-05-26T02:02:38.521Z,99.90
2018-05-26T02:05:04.778Z,99.90
2018-05-26T02:07:31.086Z,99.90
2018-05-26T02:09:58.133Z,99.90
2018-05-26T02:12:25.189Z,99.90
2018-05-26T02:14:51.450Z,99.90
2018-05-26T02:17:17.745Z,99.90
2018-05-26T02:19:44.868Z,99.90
2018-05-26T02:22:11.240Z,99.90
2018-05-26T02:24:37.595Z,99.90
2018-05-26T02:27:03.921Z,99.90
2018-05-26T02:29:30.177Z,99.90
2018-05-26T02:31:56.440Z,99.90
2018-05-26T02:34:23.498Z,99.90
2018-05-26T02:36:50.571Z,99.90
2018-05-26T02:39:16.868Z,99.90
2018-05-26T02:41:43.950Z,99.90
2018-05-26T02:44:10.212Z,99.90
2018-05-26T02:46:36.500Z,99.90
2018-05-26T02:49:02.813Z,99.90
2018-05-26T02:51:29.091Z,99.90
2018-05-26T02:53:55.381Z,99.90
2018-05-26T02:56:21.667Z,99.90
2018-05-26T02:58:47.913Z,99.90
2018-05-26T03:01:14.176Z,99.90
2018-05-26T03:03:40.495Z,99.90
2018-05-26T03:06:13.721Z,99.90
2018-05-26T03:08:52.075Z,99.90
2018-05-26T03:11:31.275Z,99.90
2018-05-26T03:14:09.639Z,99.90
2018-05-26T03:16:46.438Z,99.90
2018-05-26T03:19:12.771Z,99.90
2018-05-26T03:21:39.044Z,99.90
2018-05-26T03:24:06.068Z,99.90
2018-05-26T03:26:32.345Z,99.90
2018-05-26T03:28:59.378Z,99.90
2018-05-26T03:31:26.392Z,99.90
2018-05-26T03:33:53.677Z,99.90
2018-05-26T03:36:19.987Z,99.90
2018-05-26T03:38:46.938Z,99.90
2018-05-26T03:41:13.250Z,99.90
2018-05-26T03:43:40.286Z,99.90
2018-05-26T03:46:06.598Z,99.90
2018-05-26T03:48:32.897Z,99.90
2018-05-26T03:50:59.893Z,99.90
2018-05-26T03:53:26.162Z,99.90
2018-05-26T03:56:04.821Z,99.90
2018-05-26T03:58:43.513Z,99.90
2018-05-26T04:01:09.895Z,99.90
2018-05-26T04:03:36.149Z,99.90
2018-05-26T04:06:02.413Z,99.90
2018-05-26T04:08:29.458Z,99.90
2018-05-26T04:10:56.484Z,99.90
2018-05-26T04:13:22.756Z,99.90
2018-05-26T04:15:49.065Z,99.90
2018-05-26T04:18:16.076Z,99.90
2018-05-26T04:20:42.313Z,99.90
2018-05-26T04:23:08.613Z,99.90
2018-05-26T04:25:34.871Z,99.90
2018-05-26T04:28:01.144Z,99.90
2018-05-26T04:30:27.467Z,99.90
2018-05-26T04:32:54.454Z,99.90
2018-05-26T04:35:20.738Z,99.90
2018-05-26T04:37:47.760Z,99.90
2018-05-26T04:40:14.020Z,99.90
2018-05-26T04:42:40.313Z,99.90
2018-05-26T04:45:06.646Z,99.90
2018-05-26T04:47:33.669Z,99.90
2018-05-26T04:49:59.946Z,99.90
2018-05-26T04:52:26.217Z,99.90
2018-05-26T04:54:52.476Z,99.90
2018-05-26T04:57:18.719Z,99.90
2018-05-26T04:59:45.013Z,99.90
2018-05-26T05:02:11.259Z,99.90
2018-05-26T05:04:37.526Z,99.90
2018-05-26T05:07:04.620Z,99.90
2018-05-26T05:09:30.912Z,99.90
2018-05-26T05:11:57.922Z,90.90
2018-05-26T05:14:24.213Z,90.80
2018-05-26T05:16:50.521Z,84.90
2018-05-26T05:19:16.829Z,78.30
2018-05-26T05:21:43.114Z,73.20
2018-05-26T05:24:09.465Z,69.50
2018-05-26T05:26:35.781Z,66.60
2018-05-26T05:29:02.063Z,64.20
2018-05-26T05:31:29.120Z,61.10
2018-05-26T05:33:56.116Z,60.40
2018-05-26T05:36:22.407Z,60.40
2018-05-26T05:38:48.681Z,60.50
2018-05-26T05:41:14.945Z,60.60
2018-05-26T05:43:41.978Z,61.10
2018-05-26T05:46:08.240Z,61.00
2018-05-26T05:48:34.502Z,62.00
2018-05-26T05:51:00.796Z,62.00
2018-05-26T05:53:31.662Z,62.70
2018-05-26T05:55:57.918Z,62.70
2018-05-26T05:58:24.210Z,63.20
2018-05-26T06:00:50.475Z,63.60
2018-05-26T06:03:16.733Z,64.30
2018-05-26T06:05:43.764Z,64.60
2018-05-26T06:08:10.032Z,64.50
2018-05-26T06:10:37.059Z,64.50
2018-05-26T06:13:04.104Z,65.70
2018-05-26T06:15:30.360Z,65.60
2018-05-26T06:17:56.623Z,65.30
2018-05-26T06:20:22.911Z,65.60
2018-05-26T06:22:49.205Z,66.00
2018-05-26T06:25:15.464Z,65.70
2018-05-26T06:27:41.776Z,64.40
2018-05-26T06:30:08.024Z,63.80
2018-05-26T06:32:35.040Z,61.70
2018-05-26T06:35:01.298Z,61.70
2018-05-26T06:37:28.303Z,59.10
2018-05-26T06:39:54.565Z,59.10
2018-05-26T06:42:21.593Z,58.10
2018-05-26T06:44:47.854Z,57.40
2018-05-26T06:47:14.155Z,56.60
2018-05-26T06:49:40.461Z,56.90
2018-05-26T06:52:06.691Z,56.10
2018-05-26T06:54:32.991Z,55.70
2018-05-26T06:56:59.284Z,53.90
2018-05-26T06:59:25.588Z,53.70
2018-05-26T07:01:51.834Z,52.50
2018-05-26T07:04:18.145Z,51.60
2018-05-26T07:06:45.914Z,49.60
2018-05-26T07:09:12.225Z,49.60
2018-05-26T07:11:38.531Z,49.50
2018-05-26T07:14:04.799Z,47.40
2018-05-26T07:16:31.071Z,48.10
2018-05-26T07:18:57.395Z,48.60
2018-05-26T07:21:24.388Z,48.40
2018-05-26T07:23:50.659Z,48.30
2018-05-26T07:26:16.977Z,47.80
2018-05-26T07:28:44.161Z,46.80
2018-05-26T07:31:10.784Z,46.30
2018-05-26T07:33:37.042Z,45.60
2018-05-26T07:36:03.321Z,45.10
2018-05-26T07:38:30.350Z,44.80
2018-05-26T07:40:56.774Z,44.40
2018-05-26T07:43:23.045Z,41.90
2018-05-26T07:45:49.305Z,40.20
2018-05-26T07:48:15.617Z,40.50
2018-05-26T07:50:42.023Z,40.10
2018-05-26T07:53:08.352Z,40.30
2018-05-26T07:55:34.690Z,40.50
2018-05-26T07:58:00.998Z,40.00
2018-05-26T08:00:28.632Z,38.80
2018-05-26T08:02:55.635Z,37.80
2018-05-26T08:05:21.931Z,37.70
2018-05-26T08:07:48.191Z,37.80
2018-05-26T08:10:14.447Z,38.20
2018-05-26T08:12:41.458Z,35.40
2018-05-26T08:15:07.731Z,36.00
2018-05-26T08:17:34.016Z,34.10
2018-05-26T08:20:00.269Z,34.10
2018-05-26T08:22:27.269Z,34.00
2018-05-26T08:24:53.563Z,34.00
2018-05-26T08:27:19.885Z,34.00
2018-05-26T08:29:46.155Z,33.10
2018-05-26T08:32:12.467Z,32.70
2018-05-26T08:34:38.750Z,33.30
2018-05-26T08:37:05.023Z,32.70
2018-05-26T08:39:31.320Z,32.30
2018-05-26T08:41:57.590Z,31.40
2018-05-26T08:44:23.869Z,30.40
2018-05-26T08:46:50.261Z,30.90
2018-05-26T08:49:16.561Z,31.10
2018-05-26T08:51:43.619Z,33.20
2018-05-26T08:54:09.966Z,33.10
2018-05-26T08:56:36.245Z,36.00
2018-05-26T08:59:03.276Z,40.80
2018-05-26T09:01:30.397Z,43.20
2018-05-26T09:03:56.704Z,43.10
2018-05-26T09:06:23.031Z,45.30
2018-05-26T09:08:49.286Z,47.00
2018-05-26T09:11:15.586Z,48.10
2018-05-26T09:13:41.851Z,49.10
2018-05-26T09:16:08.152Z,49.40
2018-05-26T09:18:34.441Z,50.60
2018-05-26T09:21:00.679Z,50.20
2018-05-26T09:23:26.948Z,51.30
2018-05-26T09:25:53.246Z,52.60
2018-05-26T09:28:19.511Z,53.10
2018-05-26T09:30:45.821Z,53.80
2018-05-26T09:33:12.061Z,54.40
2018-05-26T09:35:38.278Z,53.70
2018-05-26T09:38:05.348Z,56.00
2018-05-26T09:40:31.614Z,56.00
2018-05-26T09:42:57.890Z,56.30
2018-05-26T09:45:24.186Z,56.50
2018-05-26T09:47:50.438Z,56.20
2018-05-26T09:50:17.439Z,56.30
2018-05-26T09:52:43.741Z,56.30
2018-05-26T09:55:10.015Z,56.70
2018-05-26T09:57:36.285Z,56.30
2018-05-26T10:00:03.532Z,55.30
2018-05-26T10:02:30.893Z,55.10
2018-05-26T10:04:57.933Z,55.60
2018-05-26T10:07:24.973Z,55.30
2018-05-26T10:09:51.979Z,55.40
2018-05-26T10:12:18.240Z,55.30
2018-05-26T10:14:45.310Z,55.80
2018-05-26T10:17:11.577Z,55.00
2018-05-26T10:19:37.862Z,54.20
2018-05-26T10:22:05.362Z,52.70
2018-05-26T10:24:31.730Z,52.70
2018-05-26T10:26:58.018Z,52.50
2018-05-26T10:29:24.339Z,52.00
2018-05-26T10:31:50.609Z,53.40
2018-05-26T10:34:16.885Z,53.90
2018-05-26T10:36:44.869Z,53.80
2018-05-26T10:39:12.053Z,52.80
2018-05-26T10:41:38.297Z,52.80
2018-05-26T10:44:04.589Z,53.10
2018-05-26T10:46:30.854Z,53.50
2018-05-26T10:48:57.141Z,52.00
2018-05-26T10:51:23.572Z,52.30
2018-05-26T10:53:49.857Z,53.10
2018-05-26T10:56:17.600Z,52.70
2018-05-26T10:58:43.891Z,52.60
2018-05-26T11:01:10.173Z,51.70
2018-05-26T11:03:36.485Z,51.90
2018-05-26T11:06:02.785Z,51.80
2018-05-26T11:08:29.049Z,52.00
2018-05-26T11:10:55.327Z,51.90
2018-05-26T11:13:22.378Z,52.80
2018-05-26T11:15:49.426Z,53.10
2018-05-26T11:18:16.417Z,52.80
2018-05-26T11:20:42.682Z,52.70
2018-05-26T11:23:08.936Z,51.20
2018-05-26T11:25:35.262Z,50.10
2018-05-26T11:28:01.524Z,49.00
2018-05-26T11:30:27.817Z,50.70
2018-05-26T11:32:54.839Z,51.40
2018-05-26T11:35:21.146Z,51.40
2018-05-26T11:37:47.405Z,51.40
2018-05-26T11:40:13.657Z,50.60
2018-05-26T11:42:39.942Z,50.40
2018-05-26T11:45:13.096Z,51.00
2018-05-26T11:47:39.406Z,50.40
2018-05-26T11:50:05.698Z,49.80
2018-05-26T11:52:31.953Z,48.80
2018-05-26T11:54:58.959Z,49.10
2018-05-26T11:57:25.212Z,49.10
2018-05-26T11:59:51.477Z,48.70
2018-05-26T12:02:17.762Z,47.80
2018-05-26T12:04:44.798Z,49.80
2018-05-26T12:07:11.061Z,49.80
2018-05-26T12:09:38.082Z,49.40
2018-05-26T12:12:04.371Z,49.40
2018-05-26T12:14:30.633Z,49.30
2018-05-26T12:16:57.026Z,49.60
2018-05-26T12:19:23.248Z,49.10
2018-05-26T12:21:49.507Z,49.10
2018-05-26T12:24:15.806Z,50.10
2018-05-26T12:26:42.094Z,50.60
2018-05-26T12:29:08.345Z,50.90
2018-05-26T12:31:35.364Z,50.60
2018-05-26T12:34:01.818Z,50.50
2018-05-26T12:36:28.834Z,50.30
2018-05-26T12:38:55.130Z,50.20
2018-05-26T12:41:21.406Z,49.50
2018-05-26T12:43:47.709Z,48.30
2018-05-26T12:46:14.013Z,48.40
2018-05-26T12:48:40.307Z,48.20
2018-05-26T12:51:06.533Z,48.20
2018-05-26T12:53:32.834Z,48.80
2018-05-26T12:55:59.417Z,49.80
2018-05-26T12:58:25.690Z,50.10
2018-05-26T13:00:51.980Z,48.50
2018-05-26T13:03:18.987Z,48.40
2018-05-26T13:05:45.234Z,48.30
2018-05-26T13:08:11.546Z,48.50
2018-05-26T13:10:37.813Z,48.50
2018-05-26T13:13:04.144Z,48.70
2018-05-26T13:15:31.190Z,49.70
2018-05-26T13:17:57.465Z,49.60
2018-05-26T13:20:23.716Z,49.10
2018-05-26T13:22:50.034Z,48.70
2018-05-26T13:25:16.310Z,49.00
2018-05-26T13:27:42.578Z,49.40
2018-05-26T13:30:09.393Z,48.50
2018-05-26T13:35:32.510Z,48.40
2018-05-26T13:37:58.798Z,49.40
2018-05-26T13:40:25.070Z,49.80
2018-05-26T13:42:51.371Z,48.20
2018-05-26T13:45:17.646Z,48.50
2018-05-26T13:47:43.923Z,49.30
2018-05-26T13:50:10.229Z,47.20
2018-05-26T13:52:36.524Z,47.20
2018-05-26T13:55:02.877Z,47.40
2018-05-26T13:57:29.163Z,46.50
2018-05-26T13:59:55.432Z,47.70
2018-05-26T14:02:21.693Z,47.40
2018-05-26T14:04:48.029Z,48.60
2018-05-26T14:07:14.317Z,46.90
2018-05-26T14:09:40.562Z,46.50
2018-05-26T14:12:06.855Z,47.00
2018-05-26T14:14:33.459Z,48.50
2018-05-26T14:16:59.732Z,49.40
2018-05-26T14:19:26.069Z,49.50
2018-05-26T14:21:52.323Z,50.10
2018-05-26T14:24:19.345Z,50.00
2018-05-26T14:26:45.626Z,50.00
2018-05-26T14:29:11.925Z,49.60
2018-05-26T14:31:38.974Z,48.00
2018-05-26T14:34:05.431Z,48.00
2018-05-26T14:36:31.748Z,47.10
2018-05-26T14:38:58.742Z,45.60
2018-05-26T14:41:25.018Z,45.60
2018-05-26T14:43:52.049Z,47.60
2018-05-26T14:46:18.389Z,47.60
2018-05-26T14:48:44.709Z,49.10
2018-05-26T14:51:10.994Z,48.70
2018-05-26T14:53:37.369Z,48.10
2018-05-26T14:56:03.712Z,48.10
2018-05-26T14:58:30.744Z,48.80
2018-05-26T15:00:57.052Z,48.80
2018-05-26T15:03:23.358Z,48.70
2018-05-26T15:05:49.614Z,48.20
2018-05-26T15:08:15.897Z,47.90
2018-05-26T15:10:42.241Z,46.60
2018-05-26T15:13:09.255Z,46.00
2018-05-26T15:15:35.535Z,46.00
2018-05-26T15:18:01.849Z,45.80
2018-05-26T15:20:28.855Z,45.90
2018-05-26T15:22:55.134Z,45.80
2018-05-26T15:25:21.430Z,46.80
2018-05-26T15:27:48.569Z,46.80
2018-05-26T15:30:14.872Z,46.70
2018-05-26T15:32:41.156Z,46.60
2018-05-26T15:35:08.198Z,46.60
2018-05-26T15:37:34.494Z,46.60
2018-05-26T15:40:00.798Z,45.90
2018-05-26T15:42:27.111Z,46.20
2018-05-26T15:44:53.340Z,46.80
2018-05-26T15:47:20.030Z,46.30
2018-05-26T15:49:46.293Z,47.00
2018-05-26T15:52:13.297Z,48.10
2018-05-26T15:54:39.603Z,48.10
2018-05-26T15:57:05.871Z,48.00
2018-05-26T15:59:32.167Z,48.80
2018-05-26T16:01:58.462Z,48.90
2018-05-26T16:04:25.463Z,49.80
2018-05-26T16:06:51.778Z,49.80
2018-05-26T16:09:18.624Z,48.80
2018-05-26T16:11:46.920Z,48.20
2018-05-26T16:14:13.270Z,47.50
2018-05-26T16:16:40.494Z,48.30
2018-05-26T16:19:07.186Z,48.30
2018-05-26T16:21:33.817Z,48.60
2018-05-26T16:24:00.309Z,48.40
2018-05-26T16:26:26.577Z,48.10
2018-05-26T16:28:53.595Z,48.90
2018-05-26T16:31:19.857Z,48.80
2018-05-26T16:33:46.119Z,48.80
2018-05-26T16:36:12.366Z,49.30
2018-05-26T16:38:38.696Z,49.10
2018-05-26T16:41:06.626Z,49.80
2018-05-26T16:43:33.978Z,49.70
2018-05-26T16:46:00.287Z,50.00
2018-05-26T16:48:26.619Z,49.80
2018-05-26T16:50:52.875Z,50.10
2018-05-26T16:53:19.218Z,51.30
2018-05-26T16:55:45.551Z,51.70
2018-05-26T16:58:11.802Z,51.90
2018-05-26T17:00:38.079Z,51.90
2018-05-26T17:03:04.367Z,51.00
2018-05-26T17:05:30.667Z,51.10
2018-05-26T17:07:56.963Z,51.60
2018-05-26T17:10:24.100Z,51.70
2018-05-26T17:12:51.104Z,51.90
2018-05-26T17:15:17.384Z,51.90
2018-05-26T17:17:44.393Z,52.00
2018-05-26T17:20:10.690Z,52.00
2018-05-26T17:22:37.083Z,51.50
2018-05-26T17:25:03.461Z,51.80
2018-05-26T17:27:29.731Z,52.40
2018-05-26T17:29:56.033Z,52.70
2018-05-26T17:32:22.303Z,52.90
2018-05-26T17:34:48.577Z,53.40
2018-05-26T17:37:14.848Z,53.40
2018-05-26T17:39:41.106Z,53.90
2018-05-26T17:42:08.114Z,54.50
2018-05-26T17:44:35.299Z,54.70
2018-05-26T17:47:02.344Z,54.50
2018-05-26T17:49:28.624Z,54.50
2018-05-26T17:51:54.930Z,54.70
2018-05-26T17:54:21.211Z,54.90
2018-05-26T17:56:47.494Z,55.10
2018-05-26T17:59:13.817Z,55.30
2018-05-26T18:01:40.123Z,55.40
2018-05-26T18:04:07.137Z,55.30
2018-05-26T18:06:33.449Z,55.30
2018-05-26T18:08:59.742Z,55.00
2018-05-26T18:11:28.721Z,54.40
2018-05-26T18:13:55.820Z,54.40
2018-05-26T18:16:24.962Z,54.40
2018-05-26T18:18:51.273Z,54.70
2018-05-26T18:21:20.610Z,54.80
2018-05-26T18:23:52.378Z,54.00
2018-05-26T18:28:58.516Z,54.00
2018-05-26T18:31:25.270Z,54.10
2018-05-26T18:33:51.550Z,54.40
2018-05-26T18:36:17.881Z,54.50
2018-05-26T18:38:44.177Z,54.40
2018-05-26T18:41:11.248Z,54.80
2018-05-26T18:43:37.539Z,54.70
2018-05-26T18:46:04.603Z,55.00
2018-05-26T18:48:30.919Z,55.00
2018-05-26T18:50:57.165Z,55.00
2018-05-26T18:53:24.201Z,55.40
2018-05-26T18:55:51.218Z,55.80
2018-05-26T18:58:17.492Z,55.70
2018-05-26T19:00:43.856Z,55.60
2018-05-26T19:03:10.127Z,56.00
2018-05-26T19:05:36.391Z,56.30
2018-05-26T19:08:02.703Z,56.90
2018-05-26T19:10:29.727Z,56.60
2018-05-26T19:12:55.984Z,56.50
2018-05-26T19:15:23.020Z,57.00
2018-05-26T19:17:50.015Z,57.10
2018-05-26T19:20:16.377Z,57.10
2018-05-26T19:22:42.676Z,57.40
2018-05-26T19:25:08.980Z,57.30
2018-05-26T19:27:35.257Z,57.70
2018-05-26T19:30:01.644Z,58.10
2018-05-26T19:32:27.941Z,58.20
2018-05-26T19:34:54.204Z,58.50
2018-05-26T19:37:20.515Z,58.80
2018-05-26T19:39:47.546Z,59.30
2018-05-26T19:42:13.985Z,59.30
2018-05-26T19:44:40.370Z,59.60
2018-05-26T19:47:06.658Z,59.80
2018-05-26T19:49:33.731Z,60.40
2018-05-26T19:52:00.112Z,60.40
2018-05-26T19:54:26.404Z,60.50
2018-05-26T19:56:52.686Z,60.90
2018-05-26T19:59:19.762Z,61.00
2018-05-26T20:01:46.093Z,61.00
2018-05-26T20:04:12.415Z,60.90
2018-05-26T20:06:39.456Z,61.20
2018-05-26T20:09:06.997Z,61.10
2018-05-26T20:11:33.463Z,61.10
2018-05-26T20:13:59.827Z,61.30
2018-05-26T20:16:26.121Z,61.80
2018-05-26T20:18:53.147Z,62.60
2018-05-26T20:21:19.453Z,62.60
2018-05-26T20:23:46.539Z,63.90
2018-05-26T20:26:12.830Z,64.40
2018-05-26T20:28:39.210Z,65.70
2018-05-26T20:31:05.497Z,66.40
2018-05-26T20:33:31.784Z,67.00
2018-05-26T20:35:58.866Z,68.00
2018-05-26T20:38:25.188Z,68.00
2018-05-26T20:40:51.484Z,68.40
2018-05-26T20:43:17.816Z,68.90
2018-05-26T20:45:44.137Z,69.30
2018-05-26T20:48:10.419Z,69.80
2018-05-26T20:50:36.707Z,70.20
2018-05-26T20:53:03.020Z,70.80
2018-05-26T20:55:29.347Z,71.40
2018-05-26T20:57:56.407Z,73.30
2018-05-26T21:00:22.699Z,73.40
2018-05-26T21:02:49.065Z,74.20
2018-05-26T21:05:15.427Z,75.00
2018-05-26T21:07:41.752Z,75.70
2018-05-26T21:10:08.012Z,76.60
2018-05-26T21:12:34.313Z,78.20
2018-05-26T21:15:00.617Z,80.00
2018-05-26T21:17:26.911Z,82.90
2018-05-26T21:19:53.220Z,86.20
2018-05-26T21:22:19.552Z,89.60
2018-05-26T21:24:45.877Z,91.30
2018-05-26T21:27:12.248Z,92.80
2018-05-26T21:29:38.584Z,94.20
2018-05-26T21:32:05.592Z,99.10
2018-05-26T21:34:31.880Z,98.80
2018-05-26T21:36:58.875Z,99.90
2018-05-26T21:39:25.141Z,99.90
2018-05-26T21:41:51.466Z,99.90
2018-05-26T21:44:17.732Z,99.90
2018-05-26T21:46:44.033Z,99.90
2018-05-26T21:49:11.157Z,99.90
2018-05-26T21:51:37.629Z,99.90
2018-05-26T21:54:04.051Z,99.90
2018-05-26T21:56:30.417Z,99.90
2018-05-26T21:58:56.798Z,99.90
2018-05-26T22:01:23.930Z,99.90
2018-05-26T22:03:50.318Z,99.90
2018-05-26T22:06:16.701Z,99.90
2018-05-26T22:08:43.835Z,99.90
2018-05-26T22:11:10.299Z,99.90
2018-05-26T22:13:37.493Z,99.90
2018-05-26T22:16:03.933Z,99.90
2018-05-26T22:18:31.805Z,99.90
2018-05-26T22:20:58.146Z,99.90
2018-05-26T22:23:24.477Z,99.90
2018-05-26T22:25:50.849Z,99.90
2018-05-26T22:28:17.960Z,99.90
2018-05-26T22:30:44.346Z,99.90
2018-05-26T22:33:10.717Z,99.90
2018-05-26T22:35:37.089Z,99.90
2018-05-26T22:38:03.416Z,99.90
2018-05-26T22:40:30.506Z,99.90
2018-05-26T22:42:56.819Z,99.90
2018-05-26T22:45:23.883Z,99.90
2018-05-26T22:47:50.254Z,99.90
2018-05-26T22:50:16.577Z,99.90
2018-05-26T22:52:42.841Z,99.90
2018-05-26T22:55:09.911Z,99.90
2018-05-26T22:57:36.929Z,99.90
2018-05-26T23:00:04.017Z,99.90
2018-05-26T23:02:30.362Z,99.90
2018-05-26T23:04:56.654Z,99.90
2018-05-26T23:07:23.678Z,99.90
2018-05-26T23:09:49.984Z,99.90
2018-05-26T23:12:16.258Z,99.90
2018-05-26T23:14:43.296Z,99.90
2018-05-26T23:17:10.356Z,99.90
2018-05-26T23:19:37.376Z,99.90
2018-05-26T23:22:03.695Z,99.90
2018-05-26T23:24:29.986Z,99.90
2018-05-26T23:26:57.007Z,99.90
2018-05-26T23:29:24.076Z,99.90
2018-05-26T23:31:50.384Z,99.90
2018-05-26T23:34:16.680Z,99.90
2018-05-26T23:36:42.966Z,99.90
2018-05-26T23:39:09.279Z,99.90
2018-05-26T23:41:36.304Z,99.90
2018-05-26T23:44:02.545Z,99.90
2018-05-26T23:46:28.846Z,99.90
2018-05-26T23:48:55.118Z,99.90
2018-05-26T23:51:22.142Z,99.90
2018-05-26T23:53:48.459Z,99.90
2018-05-26T23:56:14.745Z,99.90
2018-05-26T23:58:41.032Z,99.90
